Valinhos, Brazil
Current Conditions -  °F | °C
As of 7:00 AM on Thursday 18 Dec 2014 (Local Time) from SBGW Reporting Station
Clear Clear  
Wind Chill: 68°   Ceiling: Unl
Heat Index: 68°   Visibility: 6mi
Dew Point: 61°   Wind: 2mph
Humidity: 78%   Direction: 80°E
Pressure: 29.91"   Gusts: NA
Location:  21.93°S, 45.18°W
Report Text: SBGW 180900Z 08002KT CAVOK 20/16 Q1013
Loading
Personal Weather Stations






























Interactive Weather Map New forecast layout! Learn more

10-Day Weather Forecast

Advertisements
Track Severe Weather on mobile